sensor_id;sensor_type;location;lat;lon;timestamp;P1;durP1;ratioP1;P2;durP2;ratioP2
55270;SDS011;41132;47.162;9.470;2022-09-29T00:01:48;1.25;;;0.80;;
55270;SDS011;41132;47.162;9.470;2022-09-29T00:04:13;0.73;;;0.63;;
55270;SDS011;41132;47.162;9.470;2022-09-29T00:06:39;0.60;;;0.60;;
55270;SDS011;41132;47.162;9.470;2022-09-29T00:09:04;0.63;;;0.60;;
55270;SDS011;41132;47.162;9.470;2022-09-29T00:11:29;1.30;;;0.95;;
55270;SDS011;41132;47.162;9.470;2022-09-29T00:13:55;1.30;;;0.73;;
55270;SDS011;41132;47.162;9.470;2022-09-29T00:16:22;3.75;;;1.20;;
55270;SDS011;41132;47.162;9.470;2022-09-29T00:18:47;2.95;;;1.30;;
55270;SDS011;41132;47.162;9.470;2022-09-29T00:21:16;3.10;;;1.15;;
55270;SDS011;41132;47.162;9.470;2022-09-29T00:23:45;2.42;;;1.30;;
55270;SDS011;41132;47.162;9.470;2022-09-29T00:26:13;4.45;;;1.13;;
55270;SDS011;41132;47.162;9.470;2022-09-29T00:28:44;2.40;;;1.10;;
55270;SDS011;41132;47.162;9.470;2022-09-29T00:31:13;2.10;;;1.20;;
55270;SDS011;41132;47.162;9.470;2022-09-29T00:33:39;4.45;;;1.33;;
55270;SDS011;41132;47.162;9.470;2022-09-29T00:36:09;2.25;;;1.10;;
55270;SDS011;41132;47.162;9.470;2022-09-29T00:38:36;3.55;;;1.35;;
55270;SDS011;41132;47.162;9.470;2022-09-29T00:41:02;2.35;;;1.13;;
55270;SDS011;41132;47.162;9.470;2022-09-29T00:46:38;3.72;;;1.30;;
55270;SDS011;41132;47.162;9.470;2022-09-29T00:49:26;3.72;;;1.10;;
55270;SDS011;41132;47.162;9.470;2022-09-29T00:52:03;2.60;;;1.30;;
55270;SDS011;41132;47.162;9.470;2022-09-29T00:54:34;2.20;;;1.10;;
55270;SDS011;41132;47.162;9.470;2022-09-29T00:57:04;3.17;;;1.10;;
55270;SDS011;41132;47.162;9.470;2022-09-29T00:59:34;2.15;;;1.00;;
55270;SDS011;41132;47.162;9.470;2022-09-29T01:02:07;1.33;;;0.90;;
55270;SDS011;41132;47.162;9.470;2022-09-29T01:04:33;2.67;;;1.20;;
55270;SDS011;41132;47.162;9.470;2022-09-29T01:06:58;1.38;;;0.80;;
55270;SDS011;41132;47.162;9.470;2022-09-29T01:09:25;3.95;;;1.45;;
55270;SDS011;41132;47.162;9.470;2022-09-29T01:11:55;2.80;;;1.20;;
55270;SDS011;41132;47.162;9.470;2022-09-29T01:14:22;3.88;;;1.30;;
55270;SDS011;41132;47.162;9.470;2022-09-29T01:16:48;1.40;;;0.90;;
55270;SDS011;41132;47.162;9.470;2022-09-29T01:19:29;3.50;;;1.10;;
55270;SDS011;41132;47.162;9.470;2022-09-29T01:28:18;1.73;;;1.10;;
55270;SDS011;41132;47.162;9.470;2022-09-29T01:41:52;1.55;;;0.90;;
55270;SDS011;41132;47.162;9.470;2022-09-29T01:44:23;0.70;;;0.70;;
55270;SDS011;41132;47.162;9.470;2022-09-29T01:49:42;2.47;;;0.70;;
55270;SDS011;41132;47.162;9.470;2022-09-29T01:52:18;0.80;;;0.80;;
55270;SDS011;41132;47.162;9.470;2022-09-29T01:54:48;1.30;;;0.80;;
55270;SDS011;41132;47.162;9.470;2022-09-29T01:57:31;0.93;;;0.60;;
55270;SDS011;41132;47.162;9.470;2022-09-29T02:00:19;1.00;;;0.75;;
55270;SDS011;41132;47.162;9.470;2022-09-29T02:02:49;2.25;;;0.73;;
55270;SDS011;41132;47.162;9.470;2022-09-29T02:05:26;1.88;;;0.70;;
55270;SDS011;41132;47.162;9.470;2022-09-29T02:08:08;2.28;;;1.13;;
55270;SDS011;41132;47.162;9.470;2022-09-29T02:10:44;3.85;;;1.90;;
55270;SDS011;41132;47.162;9.470;2022-09-29T02:13:26;5.40;;;2.53;;
55270;SDS011;41132;47.162;9.470;2022-09-29T02:15:57;5.03;;;2.33;;
55270;SDS011;41132;47.162;9.470;2022-09-29T02:18:26;4.78;;;2.30;;
55270;SDS011;41132;47.162;9.470;2022-09-29T02:20:56;7.93;;;2.33;;
55270;SDS011;41132;47.162;9.470;2022-09-29T02:23:23;5.03;;;2.35;;
55270;SDS011;41132;47.162;9.470;2022-09-29T02:25:48;5.55;;;2.05;;
55270;SDS011;41132;47.162;9.470;2022-09-29T02:28:15;3.67;;;1.80;;
55270;SDS011;41132;47.162;9.470;2022-09-29T02:30:41;3.30;;;1.45;;
55270;SDS011;41132;47.162;9.470;2022-09-29T02:33:18;3.47;;;1.50;;
55270;SDS011;41132;47.162;9.470;2022-09-29T02:35:50;3.95;;;2.00;;
55270;SDS011;41132;47.162;9.470;2022-09-29T02:38:30;3.30;;;1.60;;
55270;SDS011;41132;47.162;9.470;2022-09-29T02:41:32;2.97;;;1.50;;
55270;SDS011;41132;47.162;9.470;2022-09-29T02:55:24;3.28;;;1.27;;
55270;SDS011;41132;47.162;9.470;2022-09-29T03:00:37;1.48;;;0.90;;
55270;SDS011;41132;47.162;9.470;2022-09-29T03:03:03;1.85;;;0.95;;
55270;SDS011;41132;47.162;9.470;2022-09-29T03:05:29;1.58;;;0.90;;
55270;SDS011;41132;47.162;9.470;2022-09-29T03:07:55;1.40;;;0.90;;
55270;SDS011;41132;47.162;9.470;2022-09-29T03:10:21;1.55;;;0.90;;
55270;SDS011;41132;47.162;9.470;2022-09-29T03:12:46;1.40;;;0.80;;
55270;SDS011;41132;47.162;9.470;2022-09-29T03:15:12;2.05;;;0.80;;
55270;SDS011;41132;47.162;9.470;2022-09-29T03:17:37;2.00;;;1.00;;
55270;SDS011;41132;47.162;9.470;2022-09-29T03:20:04;3.20;;;0.80;;
55270;SDS011;41132;47.162;9.470;2022-09-29T03:22:30;0.80;;;0.80;;
55270;SDS011;41132;47.162;9.470;2022-09-29T03:24:55;0.63;;;0.63;;
55270;SDS011;41132;47.162;9.470;2022-09-29T03:27:21;0.75;;;0.70;;
55270;SDS011;41132;47.162;9.470;2022-09-29T03:29:46;2.20;;;1.00;;
55270;SDS011;41132;47.162;9.470;2022-09-29T03:32:14;2.85;;;1.30;;
55270;SDS011;41132;47.162;9.470;2022-09-29T03:34:40;3.20;;;1.50;;
55270;SDS011;41132;47.162;9.470;2022-09-29T03:37:05;2.92;;;1.45;;
55270;SDS011;41132;47.162;9.470;2022-09-29T03:39:31;7.10;;;1.50;;
55270;SDS011;41132;47.162;9.470;2022-09-29T03:41:56;2.38;;;1.40;;
55270;SDS011;41132;47.162;9.470;2022-09-29T03:44:23;1.98;;;1.10;;
55270;SDS011;41132;47.162;9.470;2022-09-29T03:46:48;2.90;;;1.20;;
55270;SDS011;41132;47.162;9.470;2022-09-29T03:49:14;1.70;;;0.95;;
55270;SDS011;41132;47.162;9.470;2022-09-29T03:51:40;2.13;;;1.20;;
55270;SDS011;41132;47.162;9.470;2022-09-29T03:54:06;1.40;;;1.00;;
55270;SDS011;41132;47.162;9.470;2022-09-29T03:56:32;1.38;;;0.93;;
55270;SDS011;41132;47.162;9.470;2022-09-29T03:58:58;2.38;;;1.20;;
55270;SDS011;41132;47.162;9.470;2022-09-29T04:01:24;1.77;;;0.90;;
55270;SDS011;41132;47.162;9.470;2022-09-29T04:03:50;0.80;;;0.80;;
55270;SDS011;41132;47.162;9.470;2022-09-29T04:06:15;2.10;;;0.90;;
55270;SDS011;41132;47.162;9.470;2022-09-29T04:08:42;1.00;;;0.80;;
55270;SDS011;41132;47.162;9.470;2022-09-29T04:11:13;1.67;;;1.00;;
55270;SDS011;41132;47.162;9.470;2022-09-29T04:13:39;2.15;;;0.98;;
55270;SDS011;41132;47.162;9.470;2022-09-29T04:16:06;1.70;;;0.90;;
55270;SDS011;41132;47.162;9.470;2022-09-29T04:18:32;1.65;;;0.80;;
55270;SDS011;41132;47.162;9.470;2022-09-29T04:20:57;0.70;;;0.70;;
55270;SDS011;41132;47.162;9.470;2022-09-29T04:23:27;1.45;;;0.88;;
55270;SDS011;41132;47.162;9.470;2022-09-29T04:25:54;2.15;;;1.00;;
55270;SDS011;41132;47.162;9.470;2022-09-29T04:28:21;2.72;;;1.10;;
55270;SDS011;41132;47.162;9.470;2022-09-29T04:30:47;1.33;;;0.90;;
55270;SDS011;41132;47.162;9.470;2022-09-29T04:33:14;1.08;;;0.85;;
55270;SDS011;41132;47.162;9.470;2022-09-29T04:35:39;0.80;;;0.80;;
55270;SDS011;41132;47.162;9.470;2022-09-29T04:38:05;1.65;;;0.90;;
55270;SDS011;41132;47.162;9.470;2022-09-29T04:40:32;1.40;;;0.80;;
55270;SDS011;41132;47.162;9.470;2022-09-29T04:42:58;3.70;;;0.73;;
55270;SDS011;41132;47.162;9.470;2022-09-29T04:45:23;2.33;;;0.90;;
55270;SDS011;41132;47.162;9.470;2022-09-29T04:47:48;1.92;;;0.90;;
55270;SDS011;41132;47.162;9.470;2022-09-29T04:50:14;0.85;;;0.60;;
55270;SDS011;41132;47.162;9.470;2022-09-29T04:52:42;0.50;;;0.50;;
55270;SDS011;41132;47.162;9.470;2022-09-29T04:55:10;1.85;;;0.80;;
55270;SDS011;41132;47.162;9.470;2022-09-29T04:57:40;1.33;;;0.80;;
55270;SDS011;41132;47.162;9.470;2022-09-29T05:00:08;1.27;;;0.82;;
55270;SDS011;41132;47.162;9.470;2022-09-29T05:02:35;0.80;;;0.68;;
55270;SDS011;41132;47.162;9.470;2022-09-29T05:05:00;1.00;;;0.70;;
55270;SDS011;41132;47.162;9.470;2022-09-29T05:07:26;1.50;;;0.80;;
55270;SDS011;41132;47.162;9.470;2022-09-29T05:09:51;2.03;;;0.98;;
55270;SDS011;41132;47.162;9.470;2022-09-29T05:12:17;1.25;;;0.93;;
55270;SDS011;41132;47.162;9.470;2022-09-29T05:14:42;3.55;;;1.20;;
55270;SDS011;41132;47.162;9.470;2022-09-29T05:17:07;2.05;;;1.02;;
55270;SDS011;41132;47.162;9.470;2022-09-29T05:19:33;1.92;;;0.90;;
55270;SDS011;41132;47.162;9.470;2022-09-29T05:21:58;3.33;;;1.10;;
55270;SDS011;41132;47.162;9.470;2022-09-29T05:24:24;2.13;;;0.98;;
55270;SDS011;41132;47.162;9.470;2022-09-29T05:26:50;2.42;;;1.20;;
55270;SDS011;41132;47.162;9.470;2022-09-29T05:29:15;2.13;;;1.10;;
55270;SDS011;41132;47.162;9.470;2022-09-29T05:31:41;3.08;;;1.30;;
55270;SDS011;41132;47.162;9.470;2022-09-29T05:34:06;3.42;;;1.38;;
55270;SDS011;41132;47.162;9.470;2022-09-29T05:36:32;2.13;;;1.20;;
55270;SDS011;41132;47.162;9.470;2022-09-29T05:38:57;2.88;;;1.40;;
55270;SDS011;41132;47.162;9.470;2022-09-29T05:41:23;2.97;;;1.40;;
55270;SDS011;41132;47.162;9.470;2022-09-29T05:43:48;4.40;;;1.98;;
55270;SDS011;41132;47.162;9.470;2022-09-29T05:46:15;2.67;;;1.40;;
55270;SDS011;41132;47.162;9.470;2022-09-29T05:48:41;3.28;;;1.70;;
55270;SDS011;41132;47.162;9.470;2022-09-29T05:51:10;5.70;;;2.00;;
55270;SDS011;41132;47.162;9.470;2022-09-29T05:53:37;3.53;;;1.65;;
55270;SDS011;41132;47.162;9.470;2022-09-29T05:56:03;4.10;;;1.70;;
55270;SDS011;41132;47.162;9.470;2022-09-29T05:58:30;4.78;;;2.00;;
55270;SDS011;41132;47.162;9.470;2022-09-29T06:00:55;5.43;;;2.20;;
55270;SDS011;41132;47.162;9.470;2022-09-29T06:03:21;4.05;;;1.73;;
55270;SDS011;41132;47.162;9.470;2022-09-29T06:05:46;4.22;;;2.05;;
55270;SDS011;41132;47.162;9.470;2022-09-29T06:08:11;4.55;;;2.08;;
55270;SDS011;41132;47.162;9.470;2022-09-29T06:10:37;4.53;;;2.17;;
55270;SDS011;41132;47.162;9.470;2022-09-29T06:13:02;5.07;;;2.20;;
55270;SDS011;41132;47.162;9.470;2022-09-29T06:15:27;4.70;;;2.10;;
55270;SDS011;41132;47.162;9.470;2022-09-29T06:17:56;4.68;;;1.60;;
55270;SDS011;41132;47.162;9.470;2022-09-29T06:20:22;3.90;;;1.60;;
55270;SDS011;41132;47.162;9.470;2022-09-29T06:22:49;3.20;;;1.35;;
55270;SDS011;41132;47.162;9.470;2022-09-29T06:25:18;2.92;;;1.38;;
55270;SDS011;41132;47.162;9.470;2022-09-29T06:27:46;3.22;;;1.65;;
55270;SDS011;41132;47.162;9.470;2022-09-29T06:30:11;4.00;;;2.03;;
55270;SDS011;41132;47.162;9.470;2022-09-29T06:32:37;4.30;;;1.90;;
55270;SDS011;41132;47.162;9.470;2022-09-29T06:35:03;3.47;;;1.60;;
55270;SDS011;41132;47.162;9.470;2022-09-29T06:37:49;3.25;;;1.65;;
55270;SDS011;41132;47.162;9.470;2022-09-29T06:40:17;3.03;;;1.60;;
55270;SDS011;41132;47.162;9.470;2022-09-29T06:42:45;4.03;;;1.63;;
55270;SDS011;41132;47.162;9.470;2022-09-29T06:45:10;3.60;;;1.63;;
55270;SDS011;41132;47.162;9.470;2022-09-29T06:47:37;6.47;;;2.10;;
55270;SDS011;41132;47.162;9.470;2022-09-29T06:50:14;5.20;;;2.55;;
55270;SDS011;41132;47.162;9.470;2022-09-29T06:52:40;7.03;;;3.45;;
55270;SDS011;41132;47.162;9.470;2022-09-29T06:55:06;6.03;;;3.05;;
55270;SDS011;41132;47.162;9.470;2022-09-29T06:57:33;7.50;;;3.17;;
55270;SDS011;41132;47.162;9.470;2022-09-29T07:00:04;6.07;;;3.38;;
55270;SDS011;41132;47.162;9.470;2022-09-29T07:02:31;6.13;;;3.38;;
55270;SDS011;41132;47.162;9.470;2022-09-29T07:04:57;6.78;;;2.90;;
55270;SDS011;41132;47.162;9.470;2022-09-29T07:07:23;6.80;;;3.33;;
55270;SDS011;41132;47.162;9.470;2022-09-29T07:09:49;6.10;;;3.83;;
55270;SDS011;41132;47.162;9.470;2022-09-29T07:12:16;6.45;;;3.53;;
55270;SDS011;41132;47.162;9.470;2022-09-29T07:14:43;6.40;;;3.72;;
55270;SDS011;41132;47.162;9.470;2022-09-29T07:17:10;6.20;;;3.60;;
55270;SDS011;41132;47.162;9.470;2022-09-29T07:19:41;7.80;;;5.13;;
55270;SDS011;41132;47.162;9.470;2022-09-29T07:22:08;7.07;;;3.95;;
55270;SDS011;41132;47.162;9.470;2022-09-29T07:24:35;6.75;;;3.95;;
55270;SDS011;41132;47.162;9.470;2022-09-29T07:27:05;6.53;;;3.78;;
55270;SDS011;41132;47.162;9.470;2022-09-29T07:29:36;6.30;;;3.13;;
55270;SDS011;41132;47.162;9.470;2022-09-29T07:32:05;6.00;;;3.00;;
55270;SDS011;41132;47.162;9.470;2022-09-29T07:34:37;6.22;;;3.17;;
55270;SDS011;41132;47.162;9.470;2022-09-29T07:37:04;6.30;;;2.90;;
55270;SDS011;41132;47.162;9.470;2022-09-29T07:39:33;6.55;;;3.85;;
55270;SDS011;41132;47.162;9.470;2022-09-29T07:42:03;6.57;;;3.72;;
55270;SDS011;41132;47.162;9.470;2022-09-29T07:44:30;7.18;;;3.08;;
55270;SDS011;41132;47.162;9.470;2022-09-29T07:46:57;5.93;;;3.40;;
55270;SDS011;41132;47.162;9.470;2022-09-29T07:49:24;6.80;;;3.60;;
55270;SDS011;41132;47.162;9.470;2022-09-29T07:51:55;6.57;;;3.70;;
55270;SDS011;41132;47.162;9.470;2022-09-29T07:54:43;7.82;;;4.43;;
55270;SDS011;41132;47.162;9.470;2022-09-29T07:57:32;7.75;;;4.30;;
55270;SDS011;41132;47.162;9.470;2022-09-29T08:00:00;6.72;;;3.85;;
55270;SDS011;41132;47.162;9.470;2022-09-29T08:02:27;6.65;;;3.40;;
55270;SDS011;41132;47.162;9.470;2022-09-29T08:05:02;7.88;;;4.18;;
55270;SDS011;41132;47.162;9.470;2022-09-29T08:07:30;8.35;;;4.15;;
55270;SDS011;41132;47.162;9.470;2022-09-29T08:10:00;6.30;;;3.30;;
55270;SDS011;41132;47.162;9.470;2022-09-29T08:12:27;6.30;;;3.45;;
55270;SDS011;41132;47.162;9.470;2022-09-29T08:14:53;6.88;;;3.80;;
55270;SDS011;41132;47.162;9.470;2022-09-29T08:17:19;7.38;;;3.10;;
55270;SDS011;41132;47.162;9.470;2022-09-29T08:19:48;5.68;;;3.42;;
55270;SDS011;41132;47.162;9.470;2022-09-29T08:22:13;5.95;;;3.40;;
55270;SDS011;41132;47.162;9.470;2022-09-29T08:24:40;7.38;;;3.47;;
55270;SDS011;41132;47.162;9.470;2022-09-29T08:27:12;6.53;;;3.58;;
55270;SDS011;41132;47.162;9.470;2022-09-29T08:29:41;6.43;;;3.35;;
55270;SDS011;41132;47.162;9.470;2022-09-29T08:32:11;6.40;;;3.67;;
55270;SDS011;41132;47.162;9.470;2022-09-29T08:34:39;7.60;;;4.40;;
55270;SDS011;41132;47.162;9.470;2022-09-29T08:37:07;10.45;;;3.90;;
55270;SDS011;41132;47.162;9.470;2022-09-29T08:39:33;6.45;;;3.40;;
55270;SDS011;41132;47.162;9.470;2022-09-29T08:42:06;5.80;;;2.95;;
55270;SDS011;41132;47.162;9.470;2022-09-29T08:44:55;6.73;;;3.00;;
55270;SDS011;41132;47.162;9.470;2022-09-29T08:47:27;5.90;;;3.13;;
55270;SDS011;41132;47.162;9.470;2022-09-29T08:50:12;5.88;;;2.92;;
55270;SDS011;41132;47.162;9.470;2022-09-29T08:52:48;6.18;;;3.20;;
55270;SDS011;41132;47.162;9.470;2022-09-29T08:57:54;6.13;;;3.17;;
55270;SDS011;41132;47.162;9.470;2022-09-29T09:00:29;5.93;;;3.20;;
55270;SDS011;41132;47.162;9.470;2022-09-29T09:11:15;5.90;;;2.88;;
55270;SDS011;41132;47.162;9.470;2022-09-29T09:16:53;6.72;;;3.20;;
55270;SDS011;41132;47.162;9.470;2022-09-29T09:25:22;7.75;;;2.95;;
55270;SDS011;41132;47.162;9.470;2022-09-29T09:35:54;6.38;;;2.75;;
55270;SDS011;41132;47.162;9.470;2022-09-29T09:38:54;5.63;;;2.72;;
55270;SDS011;41132;47.162;9.470;2022-09-29T09:41:36;7.07;;;2.90;;
55270;SDS011;41132;47.162;9.470;2022-09-29T09:44:13;5.30;;;2.25;;
55270;SDS011;41132;47.162;9.470;2022-09-29T09:50:12;5.47;;;2.25;;
55270;SDS011;41132;47.162;9.470;2022-09-29T09:52:44;4.65;;;2.15;;
55270;SDS011;41132;47.162;9.470;2022-09-29T09:55:15;4.20;;;1.75;;
55270;SDS011;41132;47.162;9.470;2022-09-29T10:00:20;4.32;;;1.92;;
55270;SDS011;41132;47.162;9.470;2022-09-29T10:02:55;4.68;;;2.08;;
55270;SDS011;41132;47.162;9.470;2022-09-29T10:05:22;4.38;;;2.00;;
55270;SDS011;41132;47.162;9.470;2022-09-29T10:07:50;6.05;;;2.20;;
55270;SDS011;41132;47.162;9.470;2022-09-29T10:10:18;4.53;;;2.03;;
55270;SDS011;41132;47.162;9.470;2022-09-29T10:12:48;4.05;;;1.95;;
55270;SDS011;41132;47.162;9.470;2022-09-29T10:15:23;5.13;;;1.92;;
55270;SDS011;41132;47.162;9.470;2022-09-29T10:20:36;4.68;;;2.10;;
55270;SDS011;41132;47.162;9.470;2022-09-29T10:25:54;5.97;;;2.67;;
55270;SDS011;41132;47.162;9.470;2022-09-29T10:28:36;6.35;;;3.17;;
55270;SDS011;41132;47.162;9.470;2022-09-29T10:31:17;6.53;;;3.10;;
55270;SDS011;41132;47.162;9.470;2022-09-29T10:33:45;5.32;;;2.50;;
55270;SDS011;41132;47.162;9.470;2022-09-29T10:36:17;5.18;;;2.45;;
55270;SDS011;41132;47.162;9.470;2022-09-29T10:38:50;5.00;;;2.22;;
55270;SDS011;41132;47.162;9.470;2022-09-29T10:41:17;4.07;;;1.90;;
55270;SDS011;41132;47.162;9.470;2022-09-29T10:43:45;6.50;;;2.40;;
55270;SDS011;41132;47.162;9.470;2022-09-29T10:46:32;4.22;;;2.03;;
55270;SDS011;41132;47.162;9.470;2022-09-29T10:49:17;4.55;;;2.05;;
55270;SDS011;41132;47.162;9.470;2022-09-29T10:51:54;4.28;;;1.90;;
55270;SDS011;41132;47.162;9.470;2022-09-29T10:54:24;5.65;;;2.17;;
55270;SDS011;41132;47.162;9.470;2022-09-29T10:57:11;4.97;;;2.00;;
55270;SDS011;41132;47.162;9.470;2022-09-29T10:59:45;5.38;;;2.00;;
55270;SDS011;41132;47.162;9.470;2022-09-29T11:02:16;4.80;;;2.10;;
55270;SDS011;41132;47.162;9.470;2022-09-29T11:04:52;5.05;;;2.53;;
55270;SDS011;41132;47.162;9.470;2022-09-29T11:07:23;4.97;;;2.45;;
55270;SDS011;41132;47.162;9.470;2022-09-29T11:10:00;5.65;;;2.42;;
55270;SDS011;41132;47.162;9.470;2022-09-29T11:12:56;5.18;;;2.22;;
55270;SDS011;41132;47.162;9.470;2022-09-29T11:15:50;5.07;;;2.22;;
55270;SDS011;41132;47.162;9.470;2022-09-29T11:18:37;4.60;;;2.15;;
55270;SDS011;41132;47.162;9.470;2022-09-29T11:26:54;3.58;;;1.77;;
55270;SDS011;41132;47.162;9.470;2022-09-29T11:29:42;4.13;;;2.03;;
55270;SDS011;41132;47.162;9.470;2022-09-29T11:35:26;4.47;;;1.60;;
55270;SDS011;41132;47.162;9.470;2022-09-29T11:40:34;3.75;;;1.80;;
55270;SDS011;41132;47.162;9.470;2022-09-29T11:43:42;3.92;;;1.60;;
55270;SDS011;41132;47.162;9.470;2022-09-29T11:51:44;3.25;;;1.25;;
55270;SDS011;41132;47.162;9.470;2022-09-29T12:00:02;2.30;;;1.30;;
55270;SDS011;41132;47.162;9.470;2022-09-29T12:08:38;1.92;;;1.10;;
55270;SDS011;41132;47.162;9.470;2022-09-29T12:11:21;1.98;;;1.13;;
55270;SDS011;41132;47.162;9.470;2022-09-29T12:17:01;2.05;;;1.20;;
55270;SDS011;41132;47.162;9.470;2022-09-29T12:19:31;2.75;;;1.27;;
55270;SDS011;41132;47.162;9.470;2022-09-29T12:22:01;2.40;;;1.23;;
55270;SDS011;41132;47.162;9.470;2022-09-29T12:24:39;3.20;;;1.38;;
55270;SDS011;41132;47.162;9.470;2022-09-29T12:29:57;2.97;;;1.40;;
55270;SDS011;41132;47.162;9.470;2022-09-29T12:32:29;4.32;;;1.52;;
55270;SDS011;41132;47.162;9.470;2022-09-29T12:35:19;2.05;;;1.23;;
55270;SDS011;41132;47.162;9.470;2022-09-29T12:37:55;2.72;;;1.40;;
55270;SDS011;41132;47.162;9.470;2022-09-29T12:43:27;3.17;;;1.40;;
55270;SDS011;41132;47.162;9.470;2022-09-29T12:45:59;3.40;;;1.60;;
55270;SDS011;41132;47.162;9.470;2022-09-29T12:56:44;3.17;;;1.40;;
55270;SDS011;41132;47.162;9.470;2022-09-29T13:01:57;3.85;;;1.90;;
55270;SDS011;41132;47.162;9.470;2022-09-29T13:10:27;3.22;;;1.52;;
55270;SDS011;41132;47.162;9.470;2022-09-29T13:21:26;3.90;;;1.80;;
55270;SDS011;41132;47.162;9.470;2022-09-29T13:24:18;4.63;;;1.80;;
55270;SDS011;41132;47.162;9.470;2022-09-29T13:29:19;3.60;;;1.80;;
55270;SDS011;41132;47.162;9.470;2022-09-29T13:31:48;3.38;;;1.60;;
55270;SDS011;41132;47.162;9.470;2022-09-29T13:34:35;4.47;;;1.50;;
55270;SDS011;41132;47.162;9.470;2022-09-29T13:37:06;4.47;;;2.03;;
55270;SDS011;41132;47.162;9.470;2022-09-29T13:39:38;3.30;;;1.50;;
55270;SDS011;41132;47.162;9.470;2022-09-29T13:47:47;3.83;;;1.95;;
55270;SDS011;41132;47.162;9.470;2022-09-29T13:58:34;3.95;;;1.70;;
55270;SDS011;41132;47.162;9.470;2022-09-29T14:01:06;3.60;;;1.50;;
55270;SDS011;41132;47.162;9.470;2022-09-29T14:06:03;3.88;;;1.70;;
55270;SDS011;41132;47.162;9.470;2022-09-29T14:11:38;3.50;;;1.65;;
55270;SDS011;41132;47.162;9.470;2022-09-29T14:19:49;4.72;;;1.60;;
55270;SDS011;41132;47.162;9.470;2022-09-29T14:24:54;3.35;;;1.60;;
55270;SDS011;41132;47.162;9.470;2022-09-29T14:27:44;2.63;;;1.35;;
55270;SDS011;41132;47.162;9.470;2022-09-29T14:30:15;3.08;;;1.40;;
55270;SDS011;41132;47.162;9.470;2022-09-29T14:33:02;2.80;;;1.52;;
55270;SDS011;41132;47.162;9.470;2022-09-29T14:43:47;5.57;;;1.52;;
55270;SDS011;41132;47.162;9.470;2022-09-29T14:46:36;3.95;;;1.65;;
55270;SDS011;41132;47.162;9.470;2022-09-29T14:49:40;3.63;;;1.50;;
55270;SDS011;41132;47.162;9.470;2022-09-29T14:58:25;3.00;;;1.40;;
55270;SDS011;41132;47.162;9.470;2022-09-29T15:01:03;3.30;;;1.55;;
55270;SDS011;41132;47.162;9.470;2022-09-29T15:03:51;2.95;;;1.33;;
55270;SDS011;41132;47.162;9.470;2022-09-29T15:06:20;4.25;;;1.83;;
55270;SDS011;41132;47.162;9.470;2022-09-29T15:11:57;3.65;;;1.60;;
55270;SDS011;41132;47.162;9.470;2022-09-29T15:14:27;3.38;;;1.48;;
55270;SDS011;41132;47.162;9.470;2022-09-29T15:17:12;3.33;;;1.50;;
55270;SDS011;41132;47.162;9.470;2022-09-29T15:19:47;3.67;;;1.60;;
55270;SDS011;41132;47.162;9.470;2022-09-29T15:25:33;3.72;;;1.40;;
55270;SDS011;41132;47.162;9.470;2022-09-29T15:28:02;3.30;;;1.67;;
55270;SDS011;41132;47.162;9.470;2022-09-29T15:30:34;3.53;;;1.67;;
55270;SDS011;41132;47.162;9.470;2022-09-29T15:33:14;3.17;;;1.60;;
55270;SDS011;41132;47.162;9.470;2022-09-29T15:38:43;4.15;;;1.90;;
55270;SDS011;41132;47.162;9.470;2022-09-29T15:43:53;4.18;;;1.38;;
55270;SDS011;41132;47.162;9.470;2022-09-29T15:46:37;4.28;;;1.85;;
55270;SDS011;41132;47.162;9.470;2022-09-29T15:49:09;2.92;;;1.60;;
55270;SDS011;41132;47.162;9.470;2022-09-29T15:51:39;4.35;;;1.90;;
55270;SDS011;41132;47.162;9.470;2022-09-29T15:54:09;4.15;;;1.92;;
55270;SDS011;41132;47.162;9.470;2022-09-29T15:56:43;4.88;;;1.95;;
55270;SDS011;41132;47.162;9.470;2022-09-29T15:59:46;3.83;;;1.80;;
55270;SDS011;41132;47.162;9.470;2022-09-29T16:02:27;3.83;;;1.83;;
55270;SDS011;41132;47.162;9.470;2022-09-29T16:05:03;4.07;;;1.85;;
55270;SDS011;41132;47.162;9.470;2022-09-29T16:07:40;3.42;;;1.60;;
55270;SDS011;41132;47.162;9.470;2022-09-29T16:10:16;4.07;;;1.80;;
55270;SDS011;41132;47.162;9.470;2022-09-29T16:12:46;6.35;;;2.35;;
55270;SDS011;41132;47.162;9.470;2022-09-29T16:15:25;5.28;;;3.00;;
55270;SDS011;41132;47.162;9.470;2022-09-29T16:18:09;6.40;;;3.40;;
55270;SDS011;41132;47.162;9.470;2022-09-29T16:20:45;6.43;;;3.50;;
55270;SDS011;41132;47.162;9.470;2022-09-29T16:26:00;8.32;;;4.78;;
55270;SDS011;41132;47.162;9.470;2022-09-29T16:28:40;11.00;;;6.95;;
55270;SDS011;41132;47.162;9.470;2022-09-29T16:31:31;5.03;;;2.95;;
55270;SDS011;41132;47.162;9.470;2022-09-29T16:34:03;6.88;;;4.50;;
55270;SDS011;41132;47.162;9.470;2022-09-29T16:36:52;8.45;;;5.53;;
55270;SDS011;41132;47.162;9.470;2022-09-29T16:39:30;5.13;;;2.50;;
55270;SDS011;41132;47.162;9.470;2022-09-29T16:42:01;3.83;;;1.65;;
55270;SDS011;41132;47.162;9.470;2022-09-29T16:44:30;9.45;;;5.10;;
55270;SDS011;41132;47.162;9.470;2022-09-29T16:47:18;10.65;;;5.97;;
55270;SDS011;41132;47.162;9.470;2022-09-29T16:49:48;10.73;;;6.07;;
55270;SDS011;41132;47.162;9.470;2022-09-29T16:52:23;9.80;;;5.70;;
55270;SDS011;41132;47.162;9.470;2022-09-29T16:54:53;15.70;;;5.43;;
55270;SDS011;41132;47.162;9.470;2022-09-29T16:57:30;8.30;;;4.57;;
55270;SDS011;41132;47.162;9.470;2022-09-29T16:59:58;6.93;;;4.10;;
55270;SDS011;41132;47.162;9.470;2022-09-29T17:02:27;8.52;;;3.90;;
55270;SDS011;41132;47.162;9.470;2022-09-29T17:04:53;7.25;;;3.60;;
55270;SDS011;41132;47.162;9.470;2022-09-29T17:07:21;7.25;;;3.85;;
55270;SDS011;41132;47.162;9.470;2022-09-29T17:09:52;5.90;;;3.65;;
55270;SDS011;41132;47.162;9.470;2022-09-29T17:12:20;6.20;;;2.75;;
55270;SDS011;41132;47.162;9.470;2022-09-29T17:14:47;5.03;;;2.40;;
55270;SDS011;41132;47.162;9.470;2022-09-29T17:17:33;5.57;;;2.63;;
55270;SDS011;41132;47.162;9.470;2022-09-29T17:19:59;7.78;;;2.70;;
55270;SDS011;41132;47.162;9.470;2022-09-29T17:22:32;5.50;;;2.63;;
55270;SDS011;41132;47.162;9.470;2022-09-29T17:25:00;5.00;;;2.22;;
55270;SDS011;41132;47.162;9.470;2022-09-29T17:27:26;5.88;;;2.72;;
55270;SDS011;41132;47.162;9.470;2022-09-29T17:30:12;6.63;;;3.00;;
55270;SDS011;41132;47.162;9.470;2022-09-29T17:32:45;6.18;;;2.97;;
55270;SDS011;41132;47.162;9.470;2022-09-29T17:35:12;6.22;;;3.30;;
55270;SDS011;41132;47.162;9.470;2022-09-29T17:37:41;9.75;;;3.92;;
55270;SDS011;41132;47.162;9.470;2022-09-29T17:40:21;8.15;;;3.85;;
55270;SDS011;41132;47.162;9.470;2022-09-29T17:42:58;7.35;;;3.60;;
55270;SDS011;41132;47.162;9.470;2022-09-29T17:45:26;7.38;;;4.05;;
55270;SDS011;41132;47.162;9.470;2022-09-29T17:47:54;6.72;;;3.88;;
55270;SDS011;41132;47.162;9.470;2022-09-29T17:50:23;6.70;;;3.88;;
55270;SDS011;41132;47.162;9.470;2022-09-29T17:53:00;6.00;;;3.20;;
55270;SDS011;41132;47.162;9.470;2022-09-29T17:55:30;4.60;;;2.15;;
55270;SDS011;41132;47.162;9.470;2022-09-29T17:57:58;5.97;;;2.45;;
55270;SDS011;41132;47.162;9.470;2022-09-29T18:00:27;4.18;;;2.08;;
55270;SDS011;41132;47.162;9.470;2022-09-29T18:03:01;4.68;;;1.50;;
55270;SDS011;41132;47.162;9.470;2022-09-29T18:05:28;3.67;;;1.63;;
55270;SDS011;41132;47.162;9.470;2022-09-29T18:07:55;2.83;;;1.30;;
55270;SDS011;41132;47.162;9.470;2022-09-29T18:10:31;3.20;;;1.35;;
55270;SDS011;41132;47.162;9.470;2022-09-29T18:13:10;3.33;;;1.50;;
55270;SDS011;41132;47.162;9.470;2022-09-29T18:15:39;2.92;;;1.30;;
55270;SDS011;41132;47.162;9.470;2022-09-29T18:18:17;7.55;;;3.97;;
55270;SDS011;41132;47.162;9.470;2022-09-29T18:20:46;9.07;;;4.95;;
55270;SDS011;41132;47.162;9.470;2022-09-29T18:23:14;5.72;;;2.30;;
55270;SDS011;41132;47.162;9.470;2022-09-29T18:25:44;4.35;;;1.70;;
55270;SDS011;41132;47.162;9.470;2022-09-29T18:28:15;2.88;;;1.42;;
55270;SDS011;41132;47.162;9.470;2022-09-29T18:30:48;1.58;;;0.90;;
55270;SDS011;41132;47.162;9.470;2022-09-29T18:33:19;1.92;;;1.10;;